sensor_id;sensor_type;location;lat;lon;timestamp;pressure;altitude;pressure_sealevel;temperature;humidity
41062;BME280;26812;42.662;23.352;2022-12-18T00:02:15;95636.59;;;8.41;75.19
41062;BME280;26812;42.662;23.352;2022-12-18T00:04:41;95632.88;;;8.37;75.06
41062;BME280;26812;42.662;23.352;2022-12-18T00:07:06;95643.84;;;8.40;74.36
41062;BME280;26812;42.662;23.352;2022-12-18T00:09:32;95646.97;;;8.19;75.23
41062;BME280;26812;42.662;23.352;2022-12-18T00:11:57;95654.16;;;8.28;75.17
41062;BME280;26812;42.662;23.352;2022-12-18T00:14:22;95651.81;;;8.17;74.66
41062;BME280;26812;42.662;23.352;2022-12-18T00:16:48;95641.19;;;8.06;74.45
41062;BME280;26812;42.662;23.352;2022-12-18T00:19:14;95644.78;;;7.97;75.54
41062;BME280;26812;42.662;23.352;2022-12-18T00:21:41;95648.50;;;8.01;74.97
41062;BME280;26812;42.662;23.352;2022-12-18T00:24:07;95656.16;;;8.13;74.71
41062;BME280;26812;42.662;23.352;2022-12-18T00:26:34;95669.63;;;8.07;75.29
41062;BME280;26812;42.662;23.352;2022-12-18T00:29:04;95663.81;;;7.95;75.56
41062;BME280;26812;42.662;23.352;2022-12-18T00:31:30;95673.44;;;8.01;74.13
41062;BME280;26812;42.662;23.352;2022-12-18T00:33:57;95664.44;;;7.87;75.62
41062;BME280;26812;42.662;23.352;2022-12-18T00:36:25;95675.63;;;7.94;75.14
41062;BME280;26812;42.662;23.352;2022-12-18T00:38:53;95681.78;;;8.00;74.66
41062;BME280;26812;42.662;23.352;2022-12-18T00:41:19;95674.31;;;7.92;74.86
41062;BME280;26812;42.662;23.352;2022-12-18T00:44:04;95667.84;;;7.98;75.01
41062;BME280;26812;42.662;23.352;2022-12-18T00:46:30;95683.84;;;8.08;74.37
41062;BME280;26812;42.662;23.352;2022-12-18T00:48:55;95684.53;;;7.90;74.13
41062;BME280;26812;42.662;23.352;2022-12-18T00:51:21;95684.19;;;8.01;74.82
41062;BME280;26812;42.662;23.352;2022-12-18T00:53:46;95687.91;;;8.05;74.57
41062;BME280;26812;42.662;23.352;2022-12-18T00:56:11;95688.22;;;7.99;74.21
41062;BME280;26812;42.662;23.352;2022-12-18T00:58:37;95650.06;;;7.73;74.22
41062;BME280;26812;42.662;23.352;2022-12-18T01:01:06;95695.50;;;7.93;74.35
41062;BME280;26812;42.662;23.352;2022-12-18T01:03:31;95687.06;;;7.76;74.50
41062;BME280;26812;42.662;23.352;2022-12-18T01:05:57;95695.38;;;7.74;73.83
41062;BME280;26812;42.662;23.352;2022-12-18T01:08:23;95694.38;;;7.65;74.50
41062;BME280;26812;42.662;23.352;2022-12-18T01:10:48;95711.00;;;7.62;74.33
41062;BME280;26812;42.662;23.352;2022-12-18T01:13:14;95703.47;;;7.69;74.09
41062;BME280;26812;42.662;23.352;2022-12-18T01:15:39;95697.13;;;7.55;74.01
41062;BME280;26812;42.662;23.352;2022-12-18T01:18:05;95715.00;;;7.70;75.11
41062;BME280;26812;42.662;23.352;2022-12-18T01:20:31;95716.91;;;7.64;74.74
41062;BME280;26812;42.662;23.352;2022-12-18T01:22:56;95700.69;;;7.45;74.44
41062;BME280;26812;42.662;23.352;2022-12-18T01:25:22;95719.44;;;7.45;74.52
41062;BME280;26812;42.662;23.352;2022-12-18T01:27:47;95716.78;;;7.40;74.08
41062;BME280;26812;42.662;23.352;2022-12-18T01:30:13;95714.94;;;7.31;73.83
41062;BME280;26812;42.662;23.352;2022-12-18T01:32:38;95709.13;;;7.19;74.00
41062;BME280;26812;42.662;23.352;2022-12-18T01:35:04;95724.38;;;7.23;74.36
41062;BME280;26812;42.662;23.352;2022-12-18T01:37:30;95725.50;;;7.12;74.63
41062;BME280;26812;42.662;23.352;2022-12-18T01:39:56;95727.47;;;6.91;73.94
41062;BME280;26812;42.662;23.352;2022-12-18T01:42:21;95728.59;;;6.70;74.57
41062;BME280;26812;42.662;23.352;2022-12-18T01:48:07;95735.84;;;6.74;76.42
41062;BME280;26812;42.662;23.352;2022-12-18T01:50:41;95740.06;;;6.91;76.38
41062;BME280;26812;42.662;23.352;2022-12-18T01:55:50;95699.94;;;6.65;75.89
41062;BME280;26812;42.662;23.352;2022-12-18T01:58:17;95741.44;;;6.78;75.43
41062;BME280;26812;42.662;23.352;2022-12-18T02:00:43;95727.78;;;6.69;75.29
41062;BME280;26812;42.662;23.352;2022-12-18T02:03:09;95737.94;;;6.72;74.91
41062;BME280;26812;42.662;23.352;2022-12-18T02:08:22;95748.38;;;6.84;75.29
41062;BME280;26812;42.662;23.352;2022-12-18T02:11:10;95747.50;;;6.99;74.97
41062;BME280;26812;42.662;23.352;2022-12-18T02:16:43;95744.66;;;6.80;75.02
41062;BME280;26812;42.662;23.352;2022-12-18T02:22:11;95755.31;;;6.95;74.27
41062;BME280;26812;42.662;23.352;2022-12-18T02:25:02;95760.09;;;6.98;73.51
41062;BME280;26812;42.662;23.352;2022-12-18T02:27:31;95766.00;;;7.05;74.05
41062;BME280;26812;42.662;23.352;2022-12-18T02:29:59;95763.03;;;7.12;72.96
41062;BME280;26812;42.662;23.352;2022-12-18T02:32:34;95759.28;;;7.08;73.24
41062;BME280;26812;42.662;23.352;2022-12-18T02:35:02;95754.19;;;7.01;73.56
41062;BME280;26812;42.662;23.352;2022-12-18T02:37:30;95759.84;;;7.00;73.04
41062;BME280;26812;42.662;23.352;2022-12-18T02:39:58;95757.22;;;6.84;73.64
41062;BME280;26812;42.662;23.352;2022-12-18T02:42:25;95765.22;;;6.90;73.49
41062;BME280;26812;42.662;23.352;2022-12-18T02:44:52;95759.88;;;6.90;74.44
41062;BME280;26812;42.662;23.352;2022-12-18T02:47:20;95759.34;;;6.88;74.21
41062;BME280;26812;42.662;23.352;2022-12-18T02:55:19;95776.72;;;7.00;73.31
41062;BME280;26812;42.662;23.352;2022-12-18T02:57:56;95786.91;;;6.93;72.28
41062;BME280;26812;42.662;23.352;2022-12-18T03:00:38;95782.63;;;6.92;72.78
41062;BME280;26812;42.662;23.352;2022-12-18T03:05:51;95788.50;;;6.99;73.43
41062;BME280;26812;42.662;23.352;2022-12-18T03:08:23;95795.78;;;6.83;73.49
41062;BME280;26812;42.662;23.352;2022-12-18T03:11:11;95796.59;;;6.84;74.09
41062;BME280;26812;42.662;23.352;2022-12-18T03:13:50;95799.31;;;6.74;73.30
41062;BME280;26812;42.662;23.352;2022-12-18T03:16:22;95797.41;;;6.69;73.86
41062;BME280;26812;42.662;23.352;2022-12-18T03:19:04;95799.28;;;6.69;74.10
41062;BME280;26812;42.662;23.352;2022-12-18T03:21:40;95786.72;;;6.64;73.27
41062;BME280;26812;42.662;23.352;2022-12-18T03:24:09;95806.53;;;6.68;74.24
41062;BME280;26812;42.662;23.352;2022-12-18T03:26:38;95806.78;;;6.77;73.61
41062;BME280;26812;42.662;23.352;2022-12-18T03:29:13;95796.88;;;6.72;74.04
41062;BME280;26812;42.662;23.352;2022-12-18T03:31:53;95801.69;;;6.70;73.98
41062;BME280;26812;42.662;23.352;2022-12-18T03:34:27;95812.13;;;6.82;72.82
41062;BME280;26812;42.662;23.352;2022-12-18T03:36:55;95809.44;;;6.87;72.95
41062;BME280;26812;42.662;23.352;2022-12-18T03:39:20;95828.97;;;6.93;72.21
41062;BME280;26812;42.662;23.352;2022-12-18T03:44:39;95836.25;;;6.77;72.80
41062;BME280;26812;42.662;23.352;2022-12-18T03:47:28;95839.19;;;6.75;71.85
41062;BME280;26812;42.662;23.352;2022-12-18T03:53:15;95815.94;;;6.45;72.05
41062;BME280;26812;42.662;23.352;2022-12-18T03:55:45;95852.59;;;6.55;72.66
41062;BME280;26812;42.662;23.352;2022-12-18T03:58:13;95853.41;;;6.50;72.76
41062;BME280;26812;42.662;23.352;2022-12-18T04:00:42;95846.41;;;6.39;72.32
41062;BME280;26812;42.662;23.352;2022-12-18T04:03:10;95861.16;;;6.47;72.71
41062;BME280;26812;42.662;23.352;2022-12-18T04:05:36;95836.53;;;6.30;72.24
41062;BME280;26812;42.662;23.352;2022-12-18T04:08:02;95850.72;;;6.25;73.48
41062;BME280;26812;42.662;23.352;2022-12-18T04:10:29;95840.00;;;6.25;73.51
41062;BME280;26812;42.662;23.352;2022-12-18T04:12:58;95851.25;;;6.27;73.46
41062;BME280;26812;42.662;23.352;2022-12-18T04:15:24;95855.53;;;6.38;73.34
41062;BME280;26812;42.662;23.352;2022-12-18T04:17:50;95868.94;;;6.43;72.67
41062;BME280;26812;42.662;23.352;2022-12-18T04:20:16;95871.31;;;6.40;72.43
41062;BME280;26812;42.662;23.352;2022-12-18T04:22:48;95844.28;;;6.21;72.79
41062;BME280;26812;42.662;23.352;2022-12-18T04:25:14;95878.53;;;6.39;71.96
41062;BME280;26812;42.662;23.352;2022-12-18T04:27:39;95867.03;;;6.23;71.86
41062;BME280;26812;42.662;23.352;2022-12-18T04:30:06;95874.25;;;6.18;72.16
41062;BME280;26812;42.662;23.352;2022-12-18T04:32:33;95857.13;;;6.19;72.57
41062;BME280;26812;42.662;23.352;2022-12-18T04:34:58;95875.34;;;6.32;71.62
41062;BME280;26812;42.662;23.352;2022-12-18T04:37:24;95886.59;;;6.44;71.35
41062;BME280;26812;42.662;23.352;2022-12-18T04:39:49;95871.03;;;6.21;71.44
41062;BME280;26812;42.662;23.352;2022-12-18T04:42:15;95896.75;;;6.32;71.43
41062;BME280;26812;42.662;23.352;2022-12-18T04:44:40;95903.44;;;6.40;70.85
41062;BME280;26812;42.662;23.352;2022-12-18T04:47:06;95897.81;;;6.36;70.91
41062;BME280;26812;42.662;23.352;2022-12-18T04:49:32;95903.97;;;6.42;70.42
41062;BME280;26812;42.662;23.352;2022-12-18T04:51:58;95895.13;;;6.41;70.48
41062;BME280;26812;42.662;23.352;2022-12-18T04:54:23;95923.81;;;6.61;70.18
41062;BME280;26812;42.662;23.352;2022-12-18T04:56:48;95917.34;;;6.16;68.83
41062;BME280;26812;42.662;23.352;2022-12-18T04:59:14;95910.59;;;6.04;69.98
41062;BME280;26812;42.662;23.352;2022-12-18T05:01:40;95916.00;;;6.14;69.97
41062;BME280;26812;42.662;23.352;2022-12-18T05:04:05;95927.69;;;5.93;69.26
41062;BME280;26812;42.662;23.352;2022-12-18T05:06:31;95908.09;;;5.82;70.18
41062;BME280;26812;42.662;23.352;2022-12-18T05:08:56;95919.13;;;5.96;70.15
41062;BME280;26812;42.662;23.352;2022-12-18T05:11:22;95912.06;;;5.79;69.24
41062;BME280;26812;42.662;23.352;2022-12-18T05:13:48;95930.31;;;5.82;70.18
41062;BME280;26812;42.662;23.352;2022-12-18T05:16:14;95932.91;;;5.72;69.60
41062;BME280;26812;42.662;23.352;2022-12-18T05:18:40;95934.28;;;5.80;69.91
41062;BME280;26812;42.662;23.352;2022-12-18T05:21:05;95929.25;;;5.83;69.81
41062;BME280;26812;42.662;23.352;2022-12-18T05:23:31;95933.84;;;5.93;69.73
41062;BME280;26812;42.662;23.352;2022-12-18T05:26:02;95946.97;;;6.00;69.35
41062;BME280;26812;42.662;23.352;2022-12-18T05:28:29;95971.59;;;6.12;69.24
41062;BME280;26812;42.662;23.352;2022-12-18T05:30:58;95965.19;;;6.08;69.66
41062;BME280;26812;42.662;23.352;2022-12-18T05:33:25;95977.19;;;6.00;68.83
41062;BME280;26812;42.662;23.352;2022-12-18T05:35:55;95975.56;;;5.94;68.35
41062;BME280;26812;42.662;23.352;2022-12-18T05:38:22;95980.06;;;5.88;68.75
41062;BME280;26812;42.662;23.352;2022-12-18T05:40:49;95984.63;;;5.88;69.26
41062;BME280;26812;42.662;23.352;2022-12-18T05:43:15;95968.47;;;5.68;69.48
41062;BME280;26812;42.662;23.352;2022-12-18T05:45:41;95980.06;;;5.83;69.56
41062;BME280;26812;42.662;23.352;2022-12-18T05:48:07;95965.56;;;5.79;68.38
41062;BME280;26812;42.662;23.352;2022-12-18T05:50:37;95980.47;;;5.60;69.42
41062;BME280;26812;42.662;23.352;2022-12-18T05:53:04;95975.13;;;5.65;69.68
41062;BME280;26812;42.662;23.352;2022-12-18T05:55:38;95991.19;;;5.70;69.15
41062;BME280;26812;42.662;23.352;2022-12-18T05:58:05;95994.09;;;5.64;68.69
41062;BME280;26812;42.662;23.352;2022-12-18T06:00:32;95985.56;;;5.67;68.60
41062;BME280;26812;42.662;23.352;2022-12-18T06:02:58;95989.84;;;5.68;68.29
41062;BME280;26812;42.662;23.352;2022-12-18T06:05:24;95982.50;;;5.48;68.27
41062;BME280;26812;42.662;23.352;2022-12-18T06:07:49;95990.41;;;5.27;69.33
41062;BME280;26812;42.662;23.352;2022-12-18T06:10:15;95996.56;;;5.28;69.67
41062;BME280;26812;42.662;23.352;2022-12-18T06:12:40;96002.28;;;5.47;69.98
41062;BME280;26812;42.662;23.352;2022-12-18T06:15:06;95988.09;;;5.41;69.54
41062;BME280;26812;42.662;23.352;2022-12-18T06:17:32;95995.84;;;5.43;68.78
41062;BME280;26812;42.662;23.352;2022-12-18T06:19:58;95987.34;;;5.51;68.14
41062;BME280;26812;42.662;23.352;2022-12-18T06:22:24;96010.44;;;5.67;68.87
41062;BME280;26812;42.662;23.352;2022-12-18T06:24:50;96014.06;;;5.51;69.19
41062;BME280;26812;42.662;23.352;2022-12-18T06:27:15;96013.75;;;5.42;68.66
41062;BME280;26812;42.662;23.352;2022-12-18T06:29:41;96014.50;;;5.33;69.63
41062;BME280;26812;42.662;23.352;2022-12-18T06:32:06;96006.03;;;5.46;69.28
41062;BME280;26812;42.662;23.352;2022-12-18T06:34:33;96024.16;;;5.39;70.38
41062;BME280;26812;42.662;23.352;2022-12-18T06:36:58;96026.13;;;5.53;69.27
41062;BME280;26812;42.662;23.352;2022-12-18T06:39:24;96031.25;;;5.60;69.22
41062;BME280;26812;42.662;23.352;2022-12-18T06:41:49;96011.72;;;5.59;68.86
41062;BME280;26812;42.662;23.352;2022-12-18T06:44:15;96044.63;;;5.60;69.11
41062;BME280;26812;42.662;23.352;2022-12-18T06:46:41;96034.88;;;5.44;68.31
41062;BME280;26812;42.662;23.352;2022-12-18T06:49:06;96032.94;;;5.34;69.10
41062;BME280;26812;42.662;23.352;2022-12-18T06:51:34;96031.09;;;5.40;68.67
41062;BME280;26812;42.662;23.352;2022-12-18T06:53:59;96055.53;;;5.53;69.07
41062;BME280;26812;42.662;23.352;2022-12-18T06:56:25;96057.53;;;5.36;68.04
41062;BME280;26812;42.662;23.352;2022-12-18T06:58:50;96054.00;;;5.25;68.53
41062;BME280;26812;42.662;23.352;2022-12-18T07:01:16;96043.28;;;5.20;68.40
41062;BME280;26812;42.662;23.352;2022-12-18T07:03:42;96057.66;;;5.19;68.50
41062;BME280;26812;42.662;23.352;2022-12-18T07:06:18;96059.75;;;5.12;68.77
41062;BME280;26812;42.662;23.352;2022-12-18T07:08:44;96067.06;;;5.22;68.20
41062;BME280;26812;42.662;23.352;2022-12-18T07:11:10;96068.34;;;5.19;67.64
41062;BME280;26812;42.662;23.352;2022-12-18T07:13:35;96073.47;;;5.21;67.30
41062;BME280;26812;42.662;23.352;2022-12-18T07:16:12;96052.53;;;5.13;67.95
41062;BME280;26812;42.662;23.352;2022-12-18T07:18:38;96066.47;;;5.20;68.07
41062;BME280;26812;42.662;23.352;2022-12-18T07:21:09;96059.53;;;5.19;68.10
41062;BME280;26812;42.662;23.352;2022-12-18T07:23:35;96062.78;;;5.21;68.51
41062;BME280;26812;42.662;23.352;2022-12-18T07:26:05;96074.94;;;5.39;67.95
41062;BME280;26812;42.662;23.352;2022-12-18T07:28:32;96076.47;;;5.29;68.01
41062;BME280;26812;42.662;23.352;2022-12-18T07:31:02;96083.72;;;5.34;68.30
41062;BME280;26812;42.662;23.352;2022-12-18T07:33:27;96082.44;;;5.42;68.00
41062;BME280;26812;42.662;23.352;2022-12-18T07:35:53;96084.59;;;5.45;67.84
41062;BME280;26812;42.662;23.352;2022-12-18T07:38:18;96087.25;;;5.45;68.11
41062;BME280;26812;42.662;23.352;2022-12-18T07:40:43;96070.56;;;5.27;68.18
41062;BME280;26812;42.662;23.352;2022-12-18T07:43:09;96097.41;;;5.43;68.32
41062;BME280;26812;42.662;23.352;2022-12-18T07:45:34;96069.28;;;5.35;67.65
41062;BME280;26812;42.662;23.352;2022-12-18T07:48:00;96094.84;;;5.53;67.59
41062;BME280;26812;42.662;23.352;2022-12-18T07:50:25;96094.03;;;5.52;68.17
41062;BME280;26812;42.662;23.352;2022-12-18T07:52:51;96098.97;;;5.71;68.16
41062;BME280;26812;42.662;23.352;2022-12-18T07:55:16;96102.69;;;5.70;67.63
41062;BME280;26812;42.662;23.352;2022-12-18T07:57:41;96094.38;;;5.66;67.16
41062;BME280;26812;42.662;23.352;2022-12-18T08:00:07;96108.31;;;5.68;67.66
41062;BME280;26812;42.662;23.352;2022-12-18T08:02:33;96120.28;;;5.60;67.71
41062;BME280;26812;42.662;23.352;2022-12-18T08:04:58;96126.59;;;5.49;66.97
41062;BME280;26812;42.662;23.352;2022-12-18T08:07:24;96122.84;;;5.50;67.58
41062;BME280;26812;42.662;23.352;2022-12-18T08:09:49;96129.59;;;5.53;67.33
41062;BME280;26812;42.662;23.352;2022-12-18T08:12:15;96130.00;;;5.40;67.32
41062;BME280;26812;42.662;23.352;2022-12-18T08:14:40;96112.38;;;5.44;67.73
41062;BME280;26812;42.662;23.352;2022-12-18T08:17:05;96137.75;;;5.41;67.60
41062;BME280;26812;42.662;23.352;2022-12-18T08:19:31;96146.84;;;5.40;68.36
41062;BME280;26812;42.662;23.352;2022-12-18T08:21:56;96149.53;;;5.45;68.54
41062;BME280;26812;42.662;23.352;2022-12-18T08:24:22;96150.31;;;5.41;68.55
41062;BME280;26812;42.662;23.352;2022-12-18T08:26:47;96155.28;;;5.27;66.80
41062;BME280;26812;42.662;23.352;2022-12-18T08:29:12;96146.63;;;5.20;67.36
41062;BME280;26812;42.662;23.352;2022-12-18T08:31:38;96151.63;;;5.11;67.76
41062;BME280;26812;42.662;23.352;2022-12-18T08:34:03;96161.16;;;5.29;67.82
41062;BME280;26812;42.662;23.352;2022-12-18T08:36:29;96171.50;;;5.20;67.21
41062;BME280;26812;42.662;23.352;2022-12-18T08:38:54;96158.53;;;5.07;67.81
41062;BME280;26812;42.662;23.352;2022-12-18T08:41:20;96166.22;;;5.25;68.19
41062;BME280;26812;42.662;23.352;2022-12-18T08:43:46;96160.50;;;5.17;67.16
41062;BME280;26812;42.662;23.352;2022-12-18T08:46:41;96171.34;;;5.05;67.89
41062;BME280;26812;42.662;23.352;2022-12-18T08:49:07;96170.03;;;5.08;67.69
41062;BME280;26812;42.662;23.352;2022-12-18T08:51:33;96166.34;;;5.14;67.53
41062;BME280;26812;42.662;23.352;2022-12-18T08:53:59;96180.75;;;5.13;66.97
41062;BME280;26812;42.662;23.352;2022-12-18T08:56:24;96174.41;;;5.19;66.98
41062;BME280;26812;42.662;23.352;2022-12-18T08:58:54;96168.91;;;5.04;66.62
41062;BME280;26812;42.662;23.352;2022-12-18T09:01:20;96177.25;;;5.34;66.21
41062;BME280;26812;42.662;23.352;2022-12-18T09:03:48;96168.34;;;5.23;66.24
41062;BME280;26812;42.662;23.352;2022-12-18T09:06:15;96164.13;;;5.33;65.80
41062;BME280;26812;42.662;23.352;2022-12-18T09:08:41;96160.19;;;5.40;65.74
41062;BME280;26812;42.662;23.352;2022-12-18T09:11:39;96172.66;;;5.29;65.00
41062;BME280;26812;42.662;23.352;2022-12-18T09:14:05;96154.66;;;5.20;65.17
41062;BME280;26812;42.662;23.352;2022-12-18T09:16:31;96153.72;;;5.31;65.67
41062;BME280;26812;42.662;23.352;2022-12-18T09:18:58;96160.75;;;5.42;66.07
41062;BME280;26812;42.662;23.352;2022-12-18T09:21:29;96150.78;;;5.65;65.70
41062;BME280;26812;42.662;23.352;2022-12-18T09:23:55;96165.00;;;5.70;64.62
41062;BME280;26812;42.662;23.352;2022-12-18T09:26:22;96159.41;;;5.72;65.08
41062;BME280;26812;42.662;23.352;2022-12-18T09:29:02;96138.22;;;5.65;64.36
41062;BME280;26812;42.662;23.352;2022-12-18T09:31:28;96141.94;;;5.59;64.90
41062;BME280;26812;42.662;23.352;2022-12-18T09:33:55;96116.63;;;5.40;64.11
41062;BME280;26812;42.662;23.352;2022-12-18T09:36:21;96175.47;;;5.77;63.58
41062;BME280;26812;42.662;23.352;2022-12-18T09:38:47;96162.06;;;5.72;63.91
41062;BME280;26812;42.662;23.352;2022-12-18T09:44:36;96173.22;;;5.90;62.47
41062;BME280;26812;42.662;23.352;2022-12-18T09:47:28;96166.94;;;5.80;62.60
41062;BME280;26812;42.662;23.352;2022-12-18T09:50:01;96147.97;;;5.81;62.72
41062;BME280;26812;42.662;23.352;2022-12-18T09:52:37;96151.84;;;5.96;61.62
41062;BME280;26812;42.662;23.352;2022-12-18T09:57:39;96163.13;;;6.03;61.75
41062;BME280;26812;42.662;23.352;2022-12-18T10:00:18;96161.19;;;6.35;61.53
41062;BME280;26812;42.662;23.352;2022-12-18T10:02:44;96144.28;;;6.25;60.35
41062;BME280;26812;42.662;23.352;2022-12-18T10:05:20;96165.72;;;6.30;60.88
41062;BME280;26812;42.662;23.352;2022-12-18T10:10:48;96170.38;;;6.49;59.49
41062;BME280;26812;42.662;23.352;2022-12-18T10:13:31;96168.59;;;6.18;60.11
41062;BME280;26812;42.662;23.352;2022-12-18T10:16:13;96173.81;;;5.98;60.22
41062;BME280;26812;42.662;23.352;2022-12-18T10:21:36;96168.97;;;6.37;59.85
41062;BME280;26812;42.662;23.352;2022-12-18T10:27:30;96172.91;;;6.24;59.60
41062;BME280;26812;42.662;23.352;2022-12-18T10:29:56;96182.53;;;6.20;59.99
41062;BME280;26812;42.662;23.352;2022-12-18T10:32:25;96177.72;;;6.22;59.49
41062;BME280;26812;42.662;23.352;2022-12-18T10:34:53;96168.91;;;6.27;59.66
41062;BME280;26812;42.662;23.352;2022-12-18T10:37:21;96164.94;;;6.34;58.76
41062;BME280;26812;42.662;23.352;2022-12-18T10:40:07;96174.53;;;6.25;59.68
41062;BME280;26812;42.662;23.352;2022-12-18T10:42:33;96167.72;;;6.07;59.88
41062;BME280;26812;42.662;23.352;2022-12-18T10:45:08;96173.22;;;6.33;60.66
41062;BME280;26812;42.662;23.352;2022-12-18T10:47:34;96154.72;;;6.26;60.11
41062;BME280;26812;42.662;23.352;2022-12-18T10:50:00;96155.81;;;6.30;59.80
41062;BME280;26812;42.662;23.352;2022-12-18T10:52:27;96165.50;;;6.41;60.27
41062;BME280;26812;42.662;23.352;2022-12-18T10:54:55;96139.78;;;6.35;60.27
41062;BME280;26812;42.662;23.352;2022-12-18T10:59:56;96169.09;;;6.62;60.07
41062;BME280;26812;42.662;23.352;2022-12-18T11:02:48;96162.97;;;6.72;59.84
41062;BME280;26812;42.662;23.352;2022-12-18T11:05:40;96162.44;;;6.70;59.08
41062;BME280;26812;42.662;23.352;2022-12-18T11:08:20;96151.88;;;6.43;59.63
41062;BME280;26812;42.662;23.352;2022-12-18T11:10:47;96150.56;;;6.50;59.18
41062;BME280;26812;42.662;23.352;2022-12-18T11:13:24;96159.97;;;6.53;58.08
41062;BME280;26812;42.662;23.352;2022-12-18T11:15:51;96161.75;;;6.42;58.36
41062;BME280;26812;42.662;23.352;2022-12-18T11:18:32;96113.78;;;6.26;57.49
41062;BME280;26812;42.662;23.352;2022-12-18T11:21:05;96160.25;;;6.62;56.73
41062;BME280;26812;42.662;23.352;2022-12-18T11:23:33;96173.22;;;6.85;56.69
41062;BME280;26812;42.662;23.352;2022-12-18T11:26:02;96175.59;;;6.76;56.26
41062;BME280;26812;42.662;23.352;2022-12-18T11:31:32;96170.06;;;6.41;56.76
41062;BME280;26812;42.662;23.352;2022-12-18T11:36:44;96169.47;;;6.34;56.91
41062;BME280;26812;42.662;23.352;2022-12-18T11:39:40;96168.91;;;6.27;57.57
41062;BME280;26812;42.662;23.352;2022-12-18T11:42:14;96173.47;;;6.31;57.21
41062;BME280;26812;42.662;23.352;2022-12-18T11:47:45;96170.47;;;5.85;58.22
41062;BME280;26812;42.662;23.352;2022-12-18T11:50:26;96176.38;;;5.87;58.41
41062;BME280;26812;42.662;23.352;2022-12-18T11:52:54;96176.91;;;5.84;58.70
41062;BME280;26812;42.662;23.352;2022-12-18T11:55:28;96169.03;;;6.05;59.03
41062;BME280;26812;42.662;23.352;2022-12-18T11:58:02;96173.94;;;6.18;58.79
41062;BME280;26812;42.662;23.352;2022-12-18T12:00:35;96163.88;;;6.35;58.38
41062;BME280;26812;42.662;23.352;2022-12-18T12:17:45;96169.75;;;6.90;56.29
41062;BME280;26812;42.662;23.352;2022-12-18T12:20:22;96164.34;;;6.74;55.63
41062;BME280;26812;42.662;23.352;2022-12-18T12:22:54;96170.78;;;6.78;57.02
41062;BME280;26812;42.662;23.352;2022-12-18T12:39:19;96181.03;;;6.39;57.26
41062;BME280;26812;42.662;23.352;2022-12-18T12:41:47;96171.72;;;6.47;58.08
41062;BME280;26812;42.662;23.352;2022-12-18T12:44:35;96171.25;;;6.65;57.22
41062;BME280;26812;42.662;23.352;2022-12-18T12:47:17;96163.44;;;6.53;57.35
41062;BME280;26812;42.662;23.352;2022-12-18T12:49:45;96171.16;;;6.45;58.16
41062;BME280;26812;42.662;23.352;2022-12-18T12:52:16;96183.50;;;6.51;57.97
41062;BME280;26812;42.662;23.352;2022-12-18T12:54:43;96170.97;;;6.62;58.11
41062;BME280;26812;42.662;23.352;2022-12-18T13:02:35;96152.22;;;6.57;57.24
41062;BME280;26812;42.662;23.352;2022-12-18T13:07:47;96195.97;;;6.82;57.30
41062;BME280;26812;42.662;23.352;2022-12-18T13:13:11;96207.66;;;6.61;57.76
41062;BME280;26812;42.662;23.352;2022-12-18T13:20:39;96178.38;;;6.02;58.82
41062;BME280;26812;42.662;23.352;2022-12-18T13:23:37;96204.22;;;6.23;57.56
41062;BME280;26812;42.662;23.352;2022-12-18T13:34:25;96228.31;;;6.23;58.60
41062;BME280;26812;42.662;23.352;2022-12-18T13:36:52;96222.72;;;6.30;58.77
41062;BME280;26812;42.662;23.352;2022-12-18T13:41:45;96214.09;;;6.18;58.93
41062;BME280;26812;42.662;23.352;2022-12-18T13:46:47;96227.13;;;6.09;58.78
41062;BME280;26812;42.662;23.352;2022-12-18T13:51:52;96230.00;;;6.03;58.75
41062;BME280;26812;42.662;23.352;2022-12-18T13:54:39;96245.41;;;6.17;58.70
41062;BME280;26812;42.662;23.352;2022-12-18T13:57:29;96240.81;;;6.13;59.02
41062;BME280;26812;42.662;23.352;2022-12-18T13:59:55;96229.91;;;6.25;58.56
41062;BME280;26812;42.662;23.352;2022-12-18T14:02:23;96249.19;;;6.27;58.74
41062;BME280;26812;42.662;23.352;2022-12-18T14:04:50;96253.59;;;6.06;58.76
41062;BME280;26812;42.662;23.352;2022-12-18T14:07:24;96258.59;;;5.97;59.39
41062;BME280;26812;42.662;23.352;2022-12-18T14:09:53;96253.75;;;5.94;59.71
41062;BME280;26812;42.662;23.352;2022-12-18T14:12:32;96248.44;;;5.99;59.69
41062;BME280;26812;42.662;23.352;2022-12-18T14:20:42;96258.06;;;6.32;58.33
41062;BME280;26812;42.662;23.352;2022-12-18T14:25:56;96256.78;;;6.03;57.81
41062;BME280;26812;42.662;23.352;2022-12-18T14:28:22;96261.22;;;6.24;57.66
41062;BME280;26812;42.662;23.352;2022-12-18T14:30:48;96249.44;;;6.20;57.45
41062;BME280;26812;42.662;23.352;2022-12-18T14:33:19;96258.81;;;6.22;56.93
41062;BME280;26812;42.662;23.352;2022-12-18T14:35:57;96267.91;;;6.21;56.70
41062;BME280;26812;42.662;23.352;2022-12-18T14:38:37;96268.31;;;6.08;57.05
41062;BME280;26812;42.662;23.352;2022-12-18T14:41:05;96273.72;;;6.13;57.07
41062;BME280;26812;42.662;23.352;2022-12-18T14:43:33;96268.53;;;6.02;56.53
41062;BME280;26812;42.662;23.352;2022-12-18T14:46:42;96254.19;;;5.86;56.53
41062;BME280;26812;42.662;23.352;2022-12-18T14:49:31;96270.44;;;6.06;56.29
41062;BME280;26812;42.662;23.352;2022-12-18T14:54:28;96257.19;;;6.21;56.30
41062;BME280;26812;42.662;23.352;2022-12-18T14:57:02;96262.88;;;6.30;55.06
41062;BME280;26812;42.662;23.352;2022-12-18T14:59:29;96244.47;;;6.02;54.52
41062;BME280;26812;42.662;23.352;2022-12-18T15:02:04;96274.53;;;6.14;54.88
41062;BME280;26812;42.662;23.352;2022-12-18T15:04:37;96273.16;;;6.11;55.93
41062;BME280;26812;42.662;23.352;2022-12-18T15:07:11;96272.94;;;6.13;54.99
41062;BME280;26812;42.662;23.352;2022-12-18T15:09:39;96264.78;;;6.03;54.43
41062;BME280;26812;42.662;23.352;2022-12-18T15:12:05;96268.63;;;5.85;54.78
41062;BME280;26812;42.662;23.352;2022-12-18T15:14:44;96261.50;;;5.90;54.68
41062;BME280;26812;42.662;23.352;2022-12-18T15:17:18;96273.47;;;5.88;54.42
41062;BME280;26812;42.662;23.352;2022-12-18T15:19:46;96273.00;;;5.91;54.61